createdAt,value
2019-04-07T00:01:43.490Z,12.68
2019-04-07T00:04:12.113Z,12.71
2019-04-07T00:06:40.431Z,12.76
2019-04-07T00:09:08.655Z,12.83
2019-04-07T00:11:36.915Z,12.88
2019-04-07T00:14:05.637Z,12.86
2019-04-07T00:16:33.994Z,12.90
2019-04-07T00:19:02.165Z,12.87
2019-04-07T00:21:30.408Z,12.92
2019-04-07T00:23:58.639Z,13.00
2019-04-07T00:26:26.857Z,13.05
2019-04-07T00:28:55.079Z,13.12
2019-04-07T00:31:23.975Z,13.16
2019-04-07T00:33:52.187Z,13.24
2019-04-07T00:36:20.596Z,13.26
2019-04-07T00:38:48.951Z,13.20
2019-04-07T00:41:17.240Z,13.16
2019-04-07T00:43:45.997Z,13.08
2019-04-07T00:46:14.370Z,13.11
2019-04-07T00:48:42.600Z,13.01
2019-04-07T00:51:11.184Z,12.99
2019-04-07T00:53:39.438Z,13.00
2019-04-07T00:56:08.263Z,12.84
2019-04-07T00:58:36.935Z,12.61
2019-04-07T01:01:06.360Z,12.48
2019-04-07T01:03:34.925Z,12.45
2019-04-07T01:06:03.410Z,12.47
2019-04-07T01:08:31.675Z,12.55
2019-04-07T01:10:59.880Z,12.66
2019-04-07T01:13:28.099Z,12.69
2019-04-07T01:15:57.139Z,12.69
2019-04-07T01:18:26.970Z,12.73
2019-04-07T01:20:55.391Z,12.74
2019-04-07T01:23:23.634Z,12.75
2019-04-07T01:25:52.252Z,12.81
2019-04-07T01:28:20.876Z,12.79
2019-04-07T01:30:49.160Z,12.76
2019-04-07T01:33:17.467Z,12.85
2019-04-07T01:35:48.675Z,12.85
2019-04-07T01:38:15.595Z,12.91
2019-04-07T01:40:45.469Z,12.93
2019-04-07T01:43:27.302Z,12.91
2019-04-07T01:45:57.234Z,12.91
2019-04-07T01:48:33.288Z,12.92
2019-04-07T01:51:09.123Z,12.94
2019-04-07T01:53:42.057Z,12.86
2019-04-07T01:56:11.915Z,12.93
2019-04-07T01:58:53.603Z,12.89
2019-04-07T02:01:33.886Z,12.81
2019-04-07T02:04:13.035Z,12.79
2019-04-07T02:06:46.354Z,12.77
2019-04-07T02:09:25.692Z,12.68
2019-04-07T02:12:12.613Z,12.64
2019-04-07T02:14:45.568Z,12.68
2019-04-07T02:17:17.881Z,12.61
2019-04-07T02:19:50.421Z,12.58
2019-04-07T02:22:26.349Z,12.65
2019-04-07T02:25:02.204Z,12.64
2019-04-07T02:27:44.678Z,12.62
2019-04-07T02:30:23.712Z,12.61
2019-04-07T02:32:56.089Z,12.51
2019-04-07T02:35:28.844Z,12.49
2019-04-07T02:38:00.543Z,12.33
2019-04-07T02:40:42.711Z,12.19
2019-04-07T02:43:15.934Z,12.09
2019-04-07T02:45:45.836Z,12.01
2019-04-07T02:48:32.088Z,11.89
2019-04-07T02:51:05.651Z,11.89
2019-04-07T02:53:43.560Z,11.79
2019-04-07T02:56:13.505Z,11.76
2019-04-07T02:58:44.305Z,11.63
2019-04-07T03:01:14.329Z,11.57
2019-04-07T03:03:46.370Z,11.54
2019-04-07T03:06:37.667Z,11.45
2019-04-07T03:09:09.634Z,11.53
2019-04-07T03:11:40.404Z,11.47
2019-04-07T03:14:14.236Z,11.38
2019-04-07T03:16:53.384Z,11.43
2019-04-07T03:19:29.877Z,11.41
2019-04-07T03:22:00.706Z,11.37
2019-04-07T03:24:40.447Z,11.36
2019-04-07T03:27:13.665Z,11.31
2019-04-07T03:30:00.738Z,11.23
2019-04-07T03:32:42.893Z,11.07
2019-04-07T03:35:12.646Z,11.02
2019-04-07T03:37:46.514Z,11.05
2019-04-07T03:40:26.841Z,11.16
2019-04-07T03:42:57.400Z,11.20
2019-04-07T03:45:30.498Z,11.19
2019-04-07T03:48:08.463Z,11.17
2019-04-07T03:50:41.187Z,11.13
2019-04-07T03:53:17.960Z,11.13
2019-04-07T03:56:04.276Z,10.97
2019-04-07T03:58:37.598Z,10.80
2019-04-07T04:01:25.676Z,10.68
2019-04-07T04:04:11.968Z,10.68
2019-04-07T04:06:51.510Z,10.79
2019-04-07T04:09:24.440Z,10.90
2019-04-07T04:11:54.319Z,11.00
2019-04-07T04:14:29.910Z,11.06
2019-04-07T04:16:58.191Z,11.10
2019-04-07T04:19:27.545Z,11.13
2019-04-07T04:21:56.380Z,11.15
2019-04-07T04:24:24.606Z,11.18
2019-04-07T04:26:53.779Z,11.26
2019-04-07T04:29:23.165Z,11.25
2019-04-07T04:31:52.614Z,11.16
2019-04-07T04:34:21.121Z,11.07
2019-04-07T04:36:50.246Z,10.93
2019-04-07T04:39:20.060Z,10.78
2019-04-07T04:41:49.010Z,10.58
2019-04-07T04:44:18.625Z,10.52
2019-04-07T04:46:47.406Z,10.57
2019-04-07T04:49:15.664Z,10.58
2019-04-07T04:51:44.402Z,10.61
2019-04-07T04:54:12.731Z,10.56
2019-04-07T04:56:41.437Z,10.51
2019-04-07T04:59:09.752Z,10.48
2019-04-07T05:01:38.117Z,10.42
2019-04-07T05:04:06.359Z,10.49
2019-04-07T05:06:34.570Z,10.50
2019-04-07T05:09:04.568Z,10.49
2019-04-07T05:11:32.827Z,10.31
2019-04-07T05:14:01.052Z,10.18
2019-04-07T05:16:29.334Z,10.25
2019-04-07T05:18:57.551Z,10.36
2019-04-07T05:21:26.192Z,10.41
2019-04-07T05:23:54.974Z,10.44
2019-04-07T05:28:55.035Z,10.39
2019-04-07T05:31:24.646Z,10.31
2019-04-07T05:33:53.886Z,10.29
2019-04-07T05:37:08.715Z,10.37
2019-04-07T05:39:37.253Z,10.36
2019-04-07T05:42:05.511Z,10.40
2019-04-07T05:44:34.368Z,10.46
2019-04-07T05:47:02.908Z,10.50
2019-04-07T05:49:31.402Z,10.51
2019-04-07T05:52:04.203Z,10.53
2019-04-07T05:54:29.657Z,10.56
2019-04-07T05:57:01.396Z,10.58
2019-04-07T05:59:28.909Z,9.99
2019-04-07T06:02:00.660Z,10.62
2019-04-07T06:04:27.130Z,10.57
2019-04-07T06:06:56.365Z,10.62
2019-04-07T06:09:25.135Z,10.67
2019-04-07T06:11:53.505Z,10.67
2019-04-07T06:14:21.734Z,10.65
2019-04-07T06:16:53.527Z,10.62
2019-04-07T06:19:26.061Z,10.72
2019-04-07T06:21:54.310Z,10.66
2019-04-07T06:24:22.701Z,10.69
2019-04-07T06:26:53.366Z,10.77
2019-04-07T06:29:24.683Z,10.83
2019-04-07T06:31:53.945Z,10.79
2019-04-07T06:34:22.643Z,10.82
2019-04-07T06:36:54.145Z,10.87
2019-04-07T06:39:21.527Z,9.97
2019-04-07T06:41:49.846Z,11.03
2019-04-07T06:44:20.917Z,11.11
2019-04-07T06:46:57.918Z,11.17
2019-04-07T06:49:27.847Z,11.24
2019-04-07T06:52:00.789Z,11.31
2019-04-07T06:54:37.720Z,11.38
2019-04-07T06:57:12.868Z,11.48
2019-04-07T06:59:45.957Z,11.57
2019-04-07T07:02:14.355Z,11.68
2019-04-07T07:04:53.943Z,11.75
2019-04-07T07:07:30.094Z,11.84
2019-04-07T07:10:01.001Z,11.97
2019-04-07T07:12:46.175Z,12.07
2019-04-07T07:15:25.575Z,12.16
2019-04-07T07:18:01.325Z,12.30
2019-04-07T07:20:33.964Z,12.38
2019-04-07T07:23:10.186Z,12.43
2019-04-07T07:25:39.853Z,12.48
2019-04-07T07:28:10.751Z,12.57
2019-04-07T07:30:38.259Z,12.60
2019-04-07T07:33:09.659Z,12.65
2019-04-07T07:35:36.450Z,12.74
2019-04-07T07:38:04.948Z,12.79
2019-04-07T07:40:34.946Z,12.89
2019-04-07T07:43:03.518Z,12.96
2019-04-07T07:45:31.788Z,13.04
2019-04-07T07:48:00.036Z,13.11
2019-04-07T07:50:28.475Z,13.19
2019-04-07T07:52:59.155Z,13.26
2019-04-07T07:55:28.525Z,13.32
2019-04-07T07:57:59.205Z,13.44
2019-04-07T08:00:41.565Z,13.65
2019-04-07T08:03:10.750Z,13.77
2019-04-07T08:05:39.718Z,13.72
2019-04-07T08:08:08.248Z,13.76
2019-04-07T08:10:37.559Z,13.87
2019-04-07T08:13:09.046Z,13.86
2019-04-07T08:15:37.395Z,13.87
2019-04-07T08:18:07.623Z,13.98
2019-04-07T08:21:12.475Z,14.16
2019-04-07T08:23:43.034Z,14.31
2019-04-07T08:26:11.663Z,14.31
2019-04-07T08:28:40.324Z,14.38
2019-04-07T08:31:08.551Z,14.44
2019-04-07T08:33:37.430Z,14.56
2019-04-07T08:36:08.982Z,14.68
2019-04-07T08:38:38.399Z,14.80
2019-04-07T08:41:10.164Z,14.90
2019-04-07T08:43:37.319Z,14.93
2019-04-07T08:46:06.123Z,15.07
2019-04-07T08:48:34.559Z,15.06
2019-04-07T08:51:03.467Z,15.25
2019-04-07T08:53:31.919Z,15.29
2019-04-07T08:56:00.341Z,15.48
2019-04-07T08:58:30.081Z,15.48
2019-04-07T09:00:58.605Z,15.65
2019-04-07T09:03:26.799Z,15.72
2019-04-07T09:05:57.370Z,15.87
2019-04-07T09:08:25.015Z,15.92
2019-04-07T09:11:10.093Z,16.03
2019-04-07T09:13:41.409Z,16.36
2019-04-07T09:16:28.034Z,16.47
2019-04-07T09:19:03.837Z,16.71
2019-04-07T09:21:41.397Z,16.74
2019-04-07T09:24:10.133Z,16.78
2019-04-07T09:26:56.308Z,16.82
2019-04-07T09:29:42.022Z,16.88
2019-04-07T09:32:29.081Z,17.13
2019-04-07T09:35:02.059Z,17.13
2019-04-07T09:37:32.367Z,17.17
2019-04-07T09:40:04.403Z,17.32
2019-04-07T09:42:46.698Z,17.54
2019-04-07T09:45:25.446Z,17.62
2019-04-07T09:48:00.763Z,17.73
2019-04-07T09:50:33.654Z,17.87
2019-04-07T09:53:06.541Z,17.96
2019-04-07T09:55:36.781Z,18.07
2019-04-07T09:58:22.850Z,18.12
2019-04-07T10:01:06.925Z,18.24
2019-04-07T10:03:38.136Z,18.29
2019-04-07T10:06:10.774Z,18.48
2019-04-07T10:08:57.114Z,18.64
2019-04-07T10:11:30.275Z,18.74
2019-04-07T10:14:18.544Z,18.75
2019-04-07T10:16:48.482Z,18.96
2019-04-07T10:19:20.114Z,19.03
2019-04-07T10:21:56.075Z,18.88
2019-04-07T10:24:26.158Z,18.97
2019-04-07T10:27:12.530Z,19.13
2019-04-07T10:29:52.433Z,19.15
2019-04-07T10:32:39.569Z,19.26
2019-04-07T10:35:09.423Z,19.46
2019-04-07T10:37:51.018Z,19.70
2019-04-07T10:40:23.355Z,19.99
2019-04-07T10:43:02.011Z,20.25
2019-04-07T10:45:35.079Z,20.64
2019-04-07T10:48:24.472Z,21.03
2019-04-07T10:51:10.675Z,21.77
2019-04-07T10:53:47.193Z,22.86
2019-04-07T10:56:20.916Z,25.31
2019-04-07T10:58:51.799Z,26.42
2019-04-07T11:01:22.177Z,25.29
2019-04-07T11:03:53.996Z,26.58
2019-04-07T11:06:28.398Z,27.10
2019-04-07T11:09:01.035Z,27.35
2019-04-07T11:11:33.626Z,27.10
2019-04-07T11:14:12.295Z,27.28
2019-04-07T11:16:46.294Z,26.66
2019-04-07T11:19:17.697Z,27.81
2019-04-07T11:21:50.407Z,27.19
2019-04-07T11:24:32.267Z,26.98
2019-04-07T11:27:03.566Z,27.63
2019-04-07T11:29:38.543Z,29.04
2019-04-07T11:32:10.749Z,28.96
2019-04-07T11:34:43.605Z,29.16
2019-04-07T11:37:17.968Z,27.29
2019-04-07T11:39:50.341Z,26.24
2019-04-07T11:42:23.020Z,26.44
2019-04-07T11:44:59.634Z,25.65
2019-04-07T11:47:32.933Z,24.64
2019-04-07T11:50:09.378Z,25.17
2019-04-07T11:52:45.248Z,26.22
2019-04-07T11:55:18.412Z,26.52
2019-04-07T11:58:10.734Z,27.61
2019-04-07T12:00:43.424Z,27.34
2019-04-07T12:03:26.036Z,27.98
2019-04-07T12:06:05.449Z,28.07
2019-04-07T12:08:44.599Z,28.06
2019-04-07T12:11:26.604Z,28.06
2019-04-07T12:14:15.981Z,28.71
2019-04-07T12:17:06.974Z,28.91
2019-04-07T12:19:34.219Z,29.11
2019-04-07T12:22:10.451Z,28.71
2019-04-07T12:24:57.476Z,28.34
2019-04-07T12:27:28.409Z,27.31
2019-04-07T12:29:58.251Z,27.49
2019-04-07T12:32:40.281Z,27.63
2019-04-07T12:35:19.489Z,27.21
2019-04-07T12:37:50.217Z,27.73
2019-04-07T12:40:25.958Z,27.82
2019-04-07T12:43:12.120Z,27.99
2019-04-07T12:45:39.376Z,28.02
2019-04-07T12:48:11.929Z,27.79
2019-04-07T12:50:42.622Z,27.09
2019-04-07T12:53:19.689Z,27.09
2019-04-07T12:56:02.508Z,27.31
2019-04-07T12:58:49.046Z,27.20
2019-04-07T13:01:31.695Z,27.30
2019-04-07T13:04:17.916Z,26.25
2019-04-07T13:06:50.903Z,26.15
2019-04-07T13:09:32.341Z,26.05
2019-04-07T13:12:04.558Z,26.70
2019-04-07T13:14:47.521Z,26.92
2019-04-07T13:17:31.443Z,26.92
2019-04-07T13:19:58.800Z,27.16
2019-04-07T13:22:45.597Z,27.67
2019-04-07T13:25:21.596Z,28.49
2019-04-07T13:27:56.610Z,28.06
2019-04-07T13:30:32.622Z,27.99
2019-04-07T13:33:26.336Z,27.75
2019-04-07T13:35:53.600Z,28.17
2019-04-07T13:38:23.972Z,27.14
2019-04-07T13:41:03.017Z,27.68
2019-04-07T13:43:34.902Z,27.50
2019-04-07T13:46:17.517Z,28.05
2019-04-07T13:48:49.669Z,27.62
2019-04-07T13:51:23.619Z,29.22
2019-04-07T13:53:53.531Z,28.51
2019-04-07T13:56:23.370Z,28.92
2019-04-07T13:58:53.240Z,28.61
2019-04-07T14:01:26.746Z,28.50
2019-04-07T14:04:14.580Z,28.44
2019-04-07T14:06:59.521Z,28.59
2019-04-07T14:09:45.209Z,28.05
2019-04-07T14:12:21.635Z,28.46
2019-04-07T14:14:57.051Z,27.66
2019-04-07T14:17:41.893Z,27.95
2019-04-07T14:20:26.980Z,26.91
2019-04-07T14:23:08.919Z,26.83
2019-04-07T14:25:49.399Z,27.13
2019-04-07T14:28:26.612Z,27.66
2019-04-07T14:31:11.261Z,27.71
2019-04-07T14:33:59.304Z,28.13
2019-04-07T14:36:38.800Z,27.87
2019-04-07T14:39:12.883Z,28.20
2019-04-07T14:41:47.218Z,28.65
2019-04-07T14:44:38.727Z,28.42
2019-04-07T14:47:08.861Z,28.66
2019-04-07T14:49:38.740Z,28.73
2019-04-07T14:52:21.017Z,28.16
2019-04-07T14:55:06.420Z,28.13
2019-04-07T14:57:39.082Z,27.95
2019-04-07T15:00:14.138Z,27.83
2019-04-07T15:02:49.899Z,28.13
2019-04-07T15:05:25.253Z,28.38
2019-04-07T15:07:57.649Z,28.52
2019-04-07T15:10:25.441Z,28.16
2019-04-07T15:13:01.882Z,27.31
2019-04-07T15:15:30.388Z,26.85
2019-04-07T15:17:58.791Z,26.58
2019-04-07T15:20:27.135Z,26.70
2019-04-07T15:22:58.357Z,26.87
2019-04-07T15:25:27.582Z,27.46
2019-04-07T15:27:58.892Z,28.10
2019-04-07T15:30:26.588Z,28.44
2019-04-07T15:32:57.865Z,28.57
2019-04-07T15:35:24.750Z,28.43
2019-04-07T15:37:53.741Z,28.32
2019-04-07T15:40:23.445Z,28.20
2019-04-07T15:42:52.530Z,27.59
2019-04-07T15:45:21.619Z,27.02
2019-04-07T15:47:52.903Z,26.89
2019-04-07T15:50:29.282Z,26.42
2019-04-07T15:52:56.379Z,25.85
2019-04-07T15:55:37.122Z,26.27
2019-04-07T15:57:57.303Z,26.31
2019-04-07T16:00:25.858Z,25.64
2019-04-07T16:02:54.862Z,24.83
2019-04-07T16:05:23.174Z,24.78
2019-04-07T16:07:53.659Z,24.60
2019-04-07T16:10:23.453Z,24.79
2019-04-07T16:12:53.600Z,25.41
2019-04-07T16:15:21.603Z,25.95
2019-04-07T16:17:50.258Z,26.27
2019-04-07T16:20:23.312Z,26.44
2019-04-07T16:22:51.106Z,26.21
2019-04-07T16:25:18.522Z,25.67
2019-04-07T16:27:47.631Z,25.43
2019-04-07T16:30:18.960Z,25.17
2019-04-07T16:32:46.766Z,24.88
2019-04-07T16:35:16.577Z,24.45
2019-04-07T16:37:45.758Z,24.14
2019-04-07T16:40:14.732Z,23.81
2019-04-07T16:42:48.888Z,23.63
2019-04-07T16:45:16.429Z,23.51
2019-04-07T16:47:43.388Z,23.39
2019-04-07T16:50:12.209Z,23.35
2019-04-07T16:52:40.505Z,23.24
2019-04-07T16:55:28.286Z,23.38
2019-04-07T16:57:59.414Z,23.36
2019-04-07T17:00:28.014Z,23.12
2019-04-07T17:02:56.905Z,23.24
2019-04-07T17:05:26.755Z,23.21
2019-04-07T17:07:56.882Z,23.30
2019-04-07T17:10:32.395Z,23.28
2019-04-07T17:12:59.517Z,23.28
2019-04-07T17:15:27.378Z,23.16
2019-04-07T17:17:55.929Z,23.13
2019-04-07T17:20:27.874Z,22.99
2019-04-07T17:22:54.211Z,22.91
2019-04-07T17:25:22.897Z,22.91
2019-04-07T17:27:51.921Z,22.82
2019-04-07T17:30:23.201Z,22.65
2019-04-07T17:32:52.133Z,22.64
2019-04-07T17:35:21.333Z,22.69
2019-04-07T17:37:50.004Z,22.46
2019-04-07T17:40:20.111Z,22.26
2019-04-07T17:42:52.789Z,22.29
2019-04-07T17:45:23.587Z,22.16
2019-04-07T17:47:57.062Z,22.14
2019-04-07T17:50:44.253Z,22.25
2019-04-07T17:53:21.904Z,22.02
2019-04-07T17:55:51.466Z,22.06
2019-04-07T17:58:22.174Z,22.00
2019-04-07T18:00:52.130Z,22.00
2019-04-07T18:03:47.586Z,21.94
2019-04-07T18:06:31.290Z,21.74
2019-04-07T18:09:19.691Z,21.80
2019-04-07T18:11:55.026Z,21.77
2019-04-07T18:14:47.890Z,21.72
2019-04-07T18:17:17.752Z,21.66
2019-04-07T18:19:59.243Z,21.51
2019-04-07T18:22:45.077Z,21.46
2019-04-07T18:25:18.321Z,21.42
2019-04-07T18:27:53.319Z,21.41
2019-04-07T18:30:25.863Z,21.31
2019-04-07T18:33:02.733Z,21.37
2019-04-07T18:35:33.175Z,21.31
2019-04-07T18:38:03.167Z,21.28
2019-04-07T18:40:38.620Z,21.20
2019-04-07T18:43:23.504Z,21.23
2019-04-07T18:45:55.849Z,21.02
2019-04-07T18:48:43.579Z,20.99
2019-04-07T18:51:23.158Z,20.97
2019-04-07T18:54:04.178Z,20.83
2019-04-07T18:56:50.659Z,20.81
2019-04-07T18:59:29.768Z,20.76
2019-04-07T19:02:16.689Z,20.61
2019-04-07T19:04:46.583Z,20.39
2019-04-07T19:07:17.282Z,20.32
2019-04-07T19:10:09.792Z,20.19
2019-04-07T19:12:31.809Z,20.19
2019-04-07T19:15:36.323Z,20.14
2019-04-07T19:18:16.362Z,20.05
2019-04-07T19:20:52.043Z,19.98
2019-04-07T19:23:28.539Z,20.00
2019-04-07T19:26:18.117Z,19.94
2019-04-07T19:28:48.608Z,19.93
2019-04-07T19:31:19.903Z,19.84
2019-04-07T19:33:56.649Z,19.76
2019-04-07T19:36:45.023Z,19.64
2019-04-07T19:39:12.418Z,19.69
2019-04-07T19:41:51.532Z,19.68
2019-04-07T19:44:41.297Z,19.61
2019-04-07T19:47:09.162Z,19.55
2019-04-07T19:49:39.322Z,19.36
2019-04-07T19:52:09.791Z,19.33
2019-04-07T19:54:47.119Z,19.36
2019-04-07T19:57:13.788Z,19.33
2019-04-07T19:59:53.580Z,19.02
2019-04-07T20:02:35.975Z,19.02
2019-04-07T20:05:08.885Z,18.96
2019-04-07T20:07:39.634Z,18.95
2019-04-07T20:10:28.214Z,18.80
2019-04-07T20:13:05.530Z,18.81
2019-04-07T20:15:40.170Z,18.72
2019-04-07T20:18:10.351Z,18.63
2019-04-07T20:20:43.268Z,18.56
2019-04-07T20:23:32.856Z,18.47
2019-04-07T20:26:08.391Z,18.52
2019-04-07T20:28:45.051Z,18.56
2019-04-07T20:31:31.252Z,18.60
2019-04-07T20:34:07.664Z,18.57
2019-04-07T20:36:40.908Z,18.51
2019-04-07T20:39:11.491Z,18.54
2019-04-07T20:41:58.764Z,18.39
2019-04-07T20:44:59.152Z,18.36
2019-04-07T20:47:38.202Z,18.34
2019-04-07T20:50:24.179Z,18.34
2019-04-07T20:53:16.519Z,18.34
2019-04-07T20:55:42.812Z,18.33
2019-04-07T20:58:22.095Z,18.21
2019-04-07T21:00:58.349Z,18.11
2019-04-07T21:03:36.951Z,18.04
2019-04-07T21:06:16.811Z,17.91
2019-04-07T21:09:03.772Z,17.75
2019-04-07T21:11:49.956Z,17.59
2019-04-07T21:14:20.758Z,17.44
2019-04-07T21:16:59.394Z,17.33
2019-04-07T21:19:36.515Z,17.25
2019-04-07T21:22:22.825Z,17.22
2019-04-07T21:25:11.440Z,16.95
2019-04-07T21:27:44.412Z,16.74
2019-04-07T21:30:20.734Z,16.53
2019-04-07T21:33:07.821Z,16.61
2019-04-07T21:35:52.650Z,16.76
2019-04-07T21:38:24.500Z,16.69
2019-04-07T21:40:54.167Z,16.61
2019-04-07T21:43:36.091Z,16.60
2019-04-07T21:46:11.690Z,16.57
2019-04-07T21:49:00.341Z,16.53
2019-04-07T21:51:33.233Z,16.47
2019-04-07T21:54:04.419Z,16.33
2019-04-07T21:56:52.046Z,16.11
2019-04-07T21:59:37.435Z,15.69
2019-04-07T22:02:11.405Z,15.53
2019-04-07T22:04:50.672Z,15.43
2019-04-07T22:07:35.524Z,15.61
2019-04-07T22:10:10.298Z,15.76
2019-04-07T22:12:40.776Z,15.46
2019-04-07T22:15:13.456Z,15.19
2019-04-07T22:17:39.715Z,15.10
2019-04-07T22:20:08.848Z,15.11
2019-04-07T22:22:37.090Z,15.35
2019-04-07T22:25:08.661Z,15.63
2019-04-07T22:27:36.969Z,15.93
2019-04-07T22:30:09.727Z,15.78
2019-04-07T22:32:38.504Z,15.52
2019-04-07T22:35:06.993Z,15.36
2019-04-07T22:37:35.685Z,15.31
2019-04-07T22:40:19.220Z,15.01
2019-04-07T22:42:48.833Z,14.84
2019-04-07T22:45:17.193Z,14.76
2019-04-07T22:47:46.696Z,14.67
2019-04-07T22:50:15.084Z,14.64
2019-04-07T22:52:47.313Z,14.66
2019-04-07T22:55:13.273Z,15.12
2019-04-07T22:57:41.524Z,15.35
2019-04-07T23:00:11.395Z,15.47
2019-04-07T23:02:40.219Z,15.34
2019-04-07T23:05:09.284Z,14.98
2019-04-07T23:07:37.642Z,14.74
2019-04-07T23:10:06.080Z,14.52
2019-04-07T23:12:34.288Z,14.52
2019-04-07T23:15:03.537Z,14.53
2019-04-07T23:17:32.220Z,14.32
2019-04-07T23:20:00.519Z,14.12
2019-04-07T23:22:29.823Z,13.99
2019-04-07T23:24:58.247Z,13.97
2019-04-07T23:27:26.508Z,14.03
2019-04-07T23:29:54.988Z,13.95
2019-04-07T23:32:24.060Z,13.92
2019-04-07T23:34:52.338Z,13.83
2019-04-07T23:37:20.563Z,13.98
2019-04-07T23:39:49.677Z,14.03
2019-04-07T23:42:18.052Z,13.95
2019-04-07T23:44:46.285Z,14.34
2019-04-07T23:47:15.269Z,14.56
2019-04-07T23:49:43.608Z,14.69
2019-04-07T23:52:11.840Z,14.52
2019-04-07T23:54:40.065Z,14.46
2019-04-07T23:57:08.312Z,14.32
2019-04-07T23:59:36.510Z,14.18
